sensor_id;sensor_type;location;lat;lon;timestamp;P1;durP1;ratioP1;P2;durP2;ratioP2
25125;SDS011;13106;50.808;5.670;2023-05-10T00:01:38;11.02;;;7.60;;
25125;SDS011;13106;50.808;5.670;2023-05-10T00:04:05;10.85;;;8.35;;
25125;SDS011;13106;50.808;5.670;2023-05-10T00:06:31;9.90;;;7.32;;
25125;SDS011;13106;50.808;5.670;2023-05-10T00:08:57;11.27;;;7.50;;
25125;SDS011;13106;50.808;5.670;2023-05-10T00:11:23;10.32;;;7.50;;
25125;SDS011;13106;50.808;5.670;2023-05-10T00:13:49;10.23;;;7.78;;
25125;SDS011;13106;50.808;5.670;2023-05-10T00:16:15;13.05;;;9.40;;
25125;SDS011;13106;50.808;5.670;2023-05-10T00:18:41;12.65;;;9.25;;
25125;SDS011;13106;50.808;5.670;2023-05-10T00:21:07;12.23;;;8.52;;
25125;SDS011;13106;50.808;5.670;2023-05-10T00:23:33;10.02;;;7.95;;
25125;SDS011;13106;50.808;5.670;2023-05-10T00:25:59;13.38;;;8.70;;
25125;SDS011;13106;50.808;5.670;2023-05-10T00:28:27;10.98;;;8.60;;
25125;SDS011;13106;50.808;5.670;2023-05-10T00:30:53;16.33;;;9.75;;
25125;SDS011;13106;50.808;5.670;2023-05-10T00:33:19;11.52;;;8.05;;
25125;SDS011;13106;50.808;5.670;2023-05-10T00:35:45;10.10;;;7.82;;
25125;SDS011;13106;50.808;5.670;2023-05-10T00:38:11;11.80;;;8.50;;
25125;SDS011;13106;50.808;5.670;2023-05-10T00:40:37;14.18;;;9.60;;
25125;SDS011;13106;50.808;5.670;2023-05-10T00:43:03;12.23;;;9.63;;
25125;SDS011;13106;50.808;5.670;2023-05-10T00:45:33;14.68;;;9.05;;
25125;SDS011;13106;50.808;5.670;2023-05-10T00:48:00;15.18;;;9.90;;
25125;SDS011;13106;50.808;5.670;2023-05-10T00:50:28;11.50;;;8.40;;
25125;SDS011;13106;50.808;5.670;2023-05-10T00:52:54;11.38;;;8.57;;
25125;SDS011;13106;50.808;5.670;2023-05-10T00:55:21;11.38;;;8.82;;
25125;SDS011;13106;50.808;5.670;2023-05-10T00:57:47;9.88;;;7.60;;
25125;SDS011;13106;50.808;5.670;2023-05-10T01:00:13;14.63;;;9.68;;
25125;SDS011;13106;50.808;5.670;2023-05-10T01:02:43;11.05;;;7.90;;
25125;SDS011;13106;50.808;5.670;2023-05-10T01:05:10;14.73;;;8.52;;
25125;SDS011;13106;50.808;5.670;2023-05-10T01:07:36;10.68;;;8.23;;
25125;SDS011;13106;50.808;5.670;2023-05-10T01:10:02;10.18;;;7.90;;
25125;SDS011;13106;50.808;5.670;2023-05-10T01:12:28;12.55;;;7.88;;
25125;SDS011;13106;50.808;5.670;2023-05-10T01:14:54;9.85;;;7.00;;
25125;SDS011;13106;50.808;5.670;2023-05-10T01:17:20;7.60;;;6.15;;
25125;SDS011;13106;50.808;5.670;2023-05-10T01:19:47;10.68;;;7.28;;
25125;SDS011;13106;50.808;5.670;2023-05-10T01:38:17;11.57;;;8.20;;
25125;SDS011;13106;50.808;5.670;2023-05-10T01:43:17;11.63;;;8.45;;
25125;SDS011;13106;50.808;5.670;2023-05-10T01:48:11;18.58;;;11.40;;
25125;SDS011;13106;50.808;5.670;2023-05-10T01:50:41;16.77;;;11.50;;
25125;SDS011;13106;50.808;5.670;2023-05-10T01:53:09;17.63;;;12.02;;
25125;SDS011;13106;50.808;5.670;2023-05-10T01:55:39;19.75;;;13.90;;
25125;SDS011;13106;50.808;5.670;2023-05-10T01:58:10;18.33;;;12.10;;
25125;SDS011;13106;50.808;5.670;2023-05-10T02:00:39;18.65;;;12.75;;
25125;SDS011;13106;50.808;5.670;2023-05-10T02:03:06;23.33;;;13.55;;
25125;SDS011;13106;50.808;5.670;2023-05-10T02:05:32;26.02;;;15.52;;
25125;SDS011;13106;50.808;5.670;2023-05-10T02:08:00;24.02;;;14.57;;
25125;SDS011;13106;50.808;5.670;2023-05-10T02:10:27;24.08;;;15.32;;
25125;SDS011;13106;50.808;5.670;2023-05-10T02:12:54;29.85;;;16.38;;
25125;SDS011;13106;50.808;5.670;2023-05-10T02:15:24;27.60;;;16.38;;
25125;SDS011;13106;50.808;5.670;2023-05-10T02:17:50;27.55;;;15.20;;
25125;SDS011;13106;50.808;5.670;2023-05-10T02:20:18;32.45;;;17.90;;
25125;SDS011;13106;50.808;5.670;2023-05-10T02:22:44;36.50;;;18.73;;
25125;SDS011;13106;50.808;5.670;2023-05-10T02:25:12;35.83;;;18.98;;
25125;SDS011;13106;50.808;5.670;2023-05-10T02:27:39;34.05;;;18.73;;
25125;SDS011;13106;50.808;5.670;2023-05-10T02:30:07;33.70;;;17.42;;
25125;SDS011;13106;50.808;5.670;2023-05-10T02:32:33;37.35;;;18.80;;
25125;SDS011;13106;50.808;5.670;2023-05-10T02:35:01;33.05;;;17.30;;
25125;SDS011;13106;50.808;5.670;2023-05-10T02:37:28;34.97;;;18.48;;
25125;SDS011;13106;50.808;5.670;2023-05-10T02:39:55;34.95;;;18.83;;
25125;SDS011;13106;50.808;5.670;2023-05-10T02:42:23;34.75;;;18.05;;
25125;SDS011;13106;50.808;5.670;2023-05-10T02:44:52;34.40;;;18.48;;
25125;SDS011;13106;50.808;5.670;2023-05-10T02:47:18;30.92;;;15.43;;
25125;SDS011;13106;50.808;5.670;2023-05-10T02:49:44;35.70;;;16.95;;
25125;SDS011;13106;50.808;5.670;2023-05-10T02:52:11;34.20;;;16.10;;
25125;SDS011;13106;50.808;5.670;2023-05-10T02:54:44;26.80;;;14.40;;
25125;SDS011;13106;50.808;5.670;2023-05-10T02:57:13;25.15;;;13.15;;
25125;SDS011;13106;50.808;5.670;2023-05-10T02:59:41;29.00;;;14.63;;
25125;SDS011;13106;50.808;5.670;2023-05-10T03:02:10;23.50;;;13.30;;
25125;SDS011;13106;50.808;5.670;2023-05-10T03:04:37;26.15;;;13.57;;
25125;SDS011;13106;50.808;5.670;2023-05-10T03:07:03;25.10;;;13.25;;
25125;SDS011;13106;50.808;5.670;2023-05-10T03:09:30;25.75;;;14.60;;
25125;SDS011;13106;50.808;5.670;2023-05-10T03:12:14;30.00;;;13.90;;
25125;SDS011;13106;50.808;5.670;2023-05-10T03:17:39;26.33;;;13.90;;
25125;SDS011;13106;50.808;5.670;2023-05-10T03:20:08;27.30;;;13.77;;
25125;SDS011;13106;50.808;5.670;2023-05-10T03:22:37;24.08;;;13.60;;
25125;SDS011;13106;50.808;5.670;2023-05-10T03:25:05;25.38;;;14.07;;
25125;SDS011;13106;50.808;5.670;2023-05-10T03:27:31;23.70;;;13.07;;
25125;SDS011;13106;50.808;5.670;2023-05-10T03:29:58;23.45;;;13.73;;
25125;SDS011;13106;50.808;5.670;2023-05-10T03:32:24;24.48;;;12.63;;
25125;SDS011;13106;50.808;5.670;2023-05-10T03:34:55;24.42;;;13.93;;
25125;SDS011;13106;50.808;5.670;2023-05-10T03:37:21;26.93;;;14.00;;
25125;SDS011;13106;50.808;5.670;2023-05-10T03:39:47;24.45;;;14.10;;
25125;SDS011;13106;50.808;5.670;2023-05-10T03:42:13;27.15;;;14.38;;
25125;SDS011;13106;50.808;5.670;2023-05-10T03:44:39;28.83;;;15.15;;
25125;SDS011;13106;50.808;5.670;2023-05-10T03:47:05;26.85;;;14.60;;
25125;SDS011;13106;50.808;5.670;2023-05-10T03:49:31;27.92;;;14.98;;
25125;SDS011;13106;50.808;5.670;2023-05-10T03:51:57;24.20;;;14.27;;
25125;SDS011;13106;50.808;5.670;2023-05-10T03:54:23;26.60;;;15.23;;
25125;SDS011;13106;50.808;5.670;2023-05-10T03:56:50;30.23;;;15.32;;
25125;SDS011;13106;50.808;5.670;2023-05-10T03:59:16;24.13;;;14.55;;
25125;SDS011;13106;50.808;5.670;2023-05-10T04:01:42;26.20;;;15.25;;
25125;SDS011;13106;50.808;5.670;2023-05-10T04:04:08;32.80;;;15.88;;
25125;SDS011;13106;50.808;5.670;2023-05-10T04:06:34;30.38;;;15.10;;
25125;SDS011;13106;50.808;5.670;2023-05-10T04:09:00;30.88;;;15.93;;
25125;SDS011;13106;50.808;5.670;2023-05-10T04:11:29;31.00;;;15.55;;
25125;SDS011;13106;50.808;5.670;2023-05-10T04:13:55;33.20;;;16.05;;
25125;SDS011;13106;50.808;5.670;2023-05-10T04:16:21;25.40;;;15.75;;
25125;SDS011;13106;50.808;5.670;2023-05-10T04:18:47;28.63;;;15.25;;
25125;SDS011;13106;50.808;5.670;2023-05-10T04:21:13;32.35;;;17.23;;
25125;SDS011;13106;50.808;5.670;2023-05-10T04:23:40;27.95;;;16.38;;
25125;SDS011;13106;50.808;5.670;2023-05-10T04:26:06;27.20;;;14.95;;
25125;SDS011;13106;50.808;5.670;2023-05-10T04:28:32;28.13;;;16.27;;
25125;SDS011;13106;50.808;5.670;2023-05-10T04:31:05;30.02;;;15.85;;
25125;SDS011;13106;50.808;5.670;2023-05-10T04:33:31;28.05;;;14.70;;
25125;SDS011;13106;50.808;5.670;2023-05-10T04:35:58;26.95;;;16.40;;
25125;SDS011;13106;50.808;5.670;2023-05-10T04:38:24;28.65;;;16.58;;
25125;SDS011;13106;50.808;5.670;2023-05-10T04:40:50;31.48;;;17.40;;
25125;SDS011;13106;50.808;5.670;2023-05-10T04:43:16;28.35;;;15.77;;
25125;SDS011;13106;50.808;5.670;2023-05-10T04:45:42;31.30;;;16.48;;
25125;SDS011;13106;50.808;5.670;2023-05-10T04:48:08;30.13;;;16.70;;
25125;SDS011;13106;50.808;5.670;2023-05-10T04:50:34;32.80;;;17.65;;
25125;SDS011;13106;50.808;5.670;2023-05-10T04:53:01;29.83;;;17.33;;
25125;SDS011;13106;50.808;5.670;2023-05-10T04:55:27;32.67;;;17.33;;
25125;SDS011;13106;50.808;5.670;2023-05-10T04:57:53;29.63;;;16.50;;
25125;SDS011;13106;50.808;5.670;2023-05-10T05:00:21;31.88;;;16.10;;
25125;SDS011;13106;50.808;5.670;2023-05-10T05:02:47;32.60;;;18.15;;
25125;SDS011;13106;50.808;5.670;2023-05-10T05:05:14;29.10;;;16.00;;
25125;SDS011;13106;50.808;5.670;2023-05-10T05:07:40;31.13;;;16.80;;
25125;SDS011;13106;50.808;5.670;2023-05-10T05:10:06;30.48;;;17.33;;
25125;SDS011;13106;50.808;5.670;2023-05-10T05:12:32;27.42;;;16.92;;
25125;SDS011;13106;50.808;5.670;2023-05-10T05:14:59;25.88;;;15.73;;
25125;SDS011;13106;50.808;5.670;2023-05-10T05:17:25;32.10;;;17.42;;
25125;SDS011;13106;50.808;5.670;2023-05-10T05:19:51;24.70;;;15.80;;
25125;SDS011;13106;50.808;5.670;2023-05-10T05:22:17;24.50;;;14.75;;
25125;SDS011;13106;50.808;5.670;2023-05-10T05:24:44;23.33;;;14.10;;
25125;SDS011;13106;50.808;5.670;2023-05-10T05:27:10;19.20;;;13.45;;
25125;SDS011;13106;50.808;5.670;2023-05-10T05:29:36;21.42;;;14.02;;
25125;SDS011;13106;50.808;5.670;2023-05-10T05:32:02;26.60;;;17.02;;
25125;SDS011;13106;50.808;5.670;2023-05-10T05:34:28;22.05;;;13.45;;
25125;SDS011;13106;50.808;5.670;2023-05-10T05:36:54;22.70;;;14.20;;
25125;SDS011;13106;50.808;5.670;2023-05-10T05:39:21;28.58;;;15.23;;
25125;SDS011;13106;50.808;5.670;2023-05-10T05:41:47;23.23;;;14.27;;
25125;SDS011;13106;50.808;5.670;2023-05-10T05:44:13;27.25;;;15.13;;
25125;SDS011;13106;50.808;5.670;2023-05-10T05:46:39;24.65;;;14.63;;
25125;SDS011;13106;50.808;5.670;2023-05-10T05:49:05;23.13;;;14.73;;
25125;SDS011;13106;50.808;5.670;2023-05-10T05:51:31;21.10;;;12.82;;
25125;SDS011;13106;50.808;5.670;2023-05-10T05:53:57;18.88;;;12.25;;
25125;SDS011;13106;50.808;5.670;2023-05-10T05:56:24;16.27;;;10.73;;
25125;SDS011;13106;50.808;5.670;2023-05-10T05:58:50;15.70;;;9.68;;
25125;SDS011;13106;50.808;5.670;2023-05-10T06:01:16;14.48;;;9.05;;
25125;SDS011;13106;50.808;5.670;2023-05-10T06:03:42;13.63;;;9.00;;
25125;SDS011;13106;50.808;5.670;2023-05-10T06:06:08;18.08;;;9.32;;
25125;SDS011;13106;50.808;5.670;2023-05-10T06:08:34;18.08;;;9.60;;
25125;SDS011;13106;50.808;5.670;2023-05-10T06:11:00;15.13;;;9.23;;
25125;SDS011;13106;50.808;5.670;2023-05-10T06:13:26;13.60;;;8.10;;
25125;SDS011;13106;50.808;5.670;2023-05-10T06:16:00;11.27;;;7.97;;
25125;SDS011;13106;50.808;5.670;2023-05-10T06:18:26;12.95;;;8.00;;
25125;SDS011;13106;50.808;5.670;2023-05-10T06:20:52;13.95;;;8.90;;
25125;SDS011;13106;50.808;5.670;2023-05-10T06:23:18;18.10;;;10.80;;
25125;SDS011;13106;50.808;5.670;2023-05-10T06:25:44;15.32;;;9.23;;
25125;SDS011;13106;50.808;5.670;2023-05-10T06:28:10;15.18;;;9.18;;
25125;SDS011;13106;50.808;5.670;2023-05-10T06:30:36;12.48;;;8.88;;
25125;SDS011;13106;50.808;5.670;2023-05-10T06:33:03;10.85;;;7.25;;
25125;SDS011;13106;50.808;5.670;2023-05-10T06:35:28;12.20;;;8.32;;
25125;SDS011;13106;50.808;5.670;2023-05-10T06:37:56;13.55;;;8.55;;
25125;SDS011;13106;50.808;5.670;2023-05-10T06:40:22;16.38;;;9.93;;
25125;SDS011;13106;50.808;5.670;2023-05-10T06:42:48;15.02;;;9.98;;
25125;SDS011;13106;50.808;5.670;2023-05-10T06:45:14;17.67;;;9.80;;
25125;SDS011;13106;50.808;5.670;2023-05-10T06:47:40;17.20;;;9.63;;
25125;SDS011;13106;50.808;5.670;2023-05-10T06:50:07;16.45;;;9.52;;
25125;SDS011;13106;50.808;5.670;2023-05-10T06:52:33;21.15;;;10.50;;
25125;SDS011;13106;50.808;5.670;2023-05-10T06:54:59;17.42;;;10.35;;
25125;SDS011;13106;50.808;5.670;2023-05-10T06:57:26;15.02;;;9.82;;
25125;SDS011;13106;50.808;5.670;2023-05-10T06:59:52;18.92;;;10.75;;
25125;SDS011;13106;50.808;5.670;2023-05-10T07:02:18;20.45;;;12.07;;
25125;SDS011;13106;50.808;5.670;2023-05-10T07:04:44;22.50;;;12.70;;
25125;SDS011;13106;50.808;5.670;2023-05-10T07:07:10;22.65;;;12.63;;
25125;SDS011;13106;50.808;5.670;2023-05-10T07:09:36;22.10;;;12.93;;
25125;SDS011;13106;50.808;5.670;2023-05-10T07:12:02;23.17;;;13.60;;
25125;SDS011;13106;50.808;5.670;2023-05-10T07:14:28;24.02;;;13.15;;
25125;SDS011;13106;50.808;5.670;2023-05-10T07:16:54;24.40;;;14.05;;
25125;SDS011;13106;50.808;5.670;2023-05-10T07:19:20;22.27;;;12.98;;
25125;SDS011;13106;50.808;5.670;2023-05-10T07:21:46;23.80;;;13.05;;
25125;SDS011;13106;50.808;5.670;2023-05-10T07:24:12;12.57;;;6.93;;
25125;SDS011;13106;50.808;5.670;2023-05-10T07:26:38;6.88;;;4.20;;
25125;SDS011;13106;50.808;5.670;2023-05-10T07:29:05;6.18;;;2.90;;
25125;SDS011;13106;50.808;5.670;2023-05-10T07:31:31;3.13;;;2.22;;
25125;SDS011;13106;50.808;5.670;2023-05-10T07:33:57;3.60;;;2.30;;
25125;SDS011;13106;50.808;5.670;2023-05-10T07:36:23;3.80;;;3.20;;
25125;SDS011;13106;50.808;5.670;2023-05-10T07:38:49;4.57;;;2.70;;
25125;SDS011;13106;50.808;5.670;2023-05-10T07:41:15;6.38;;;3.00;;
25125;SDS011;13106;50.808;5.670;2023-05-10T07:43:41;5.20;;;3.22;;
25125;SDS011;13106;50.808;5.670;2023-05-10T07:46:07;4.30;;;3.22;;
25125;SDS011;13106;50.808;5.670;2023-05-10T07:48:35;6.25;;;3.67;;
25125;SDS011;13106;50.808;5.670;2023-05-10T07:51:01;6.68;;;3.70;;
25125;SDS011;13106;50.808;5.670;2023-05-10T07:53:27;6.00;;;3.75;;
25125;SDS011;13106;50.808;5.670;2023-05-10T07:55:54;8.02;;;4.05;;
25125;SDS011;13106;50.808;5.670;2023-05-10T07:58:23;6.32;;;3.92;;
25125;SDS011;13106;50.808;5.670;2023-05-10T08:00:49;5.88;;;3.88;;
25125;SDS011;13106;50.808;5.670;2023-05-10T08:03:15;8.55;;;4.30;;
25125;SDS011;13106;50.808;5.670;2023-05-10T08:05:41;6.32;;;3.80;;
25125;SDS011;13106;50.808;5.670;2023-05-10T08:08:07;5.53;;;3.50;;
25125;SDS011;13106;50.808;5.670;2023-05-10T08:10:33;4.88;;;3.80;;
25125;SDS011;13106;50.808;5.670;2023-05-10T08:12:59;5.07;;;3.85;;
25125;SDS011;13106;50.808;5.670;2023-05-10T08:15:25;4.93;;;3.10;;
25125;SDS011;13106;50.808;5.670;2023-05-10T08:17:52;5.35;;;3.40;;
25125;SDS011;13106;50.808;5.670;2023-05-10T08:20:18;5.28;;;3.22;;
25125;SDS011;13106;50.808;5.670;2023-05-10T08:22:47;4.65;;;3.63;;
25125;SDS011;13106;50.808;5.670;2023-05-10T08:25:13;5.30;;;3.30;;
25125;SDS011;13106;50.808;5.670;2023-05-10T08:27:39;4.35;;;3.40;;
25125;SDS011;13106;50.808;5.670;2023-05-10T08:30:05;4.22;;;3.20;;
25125;SDS011;13106;50.808;5.670;2023-05-10T08:32:31;5.07;;;3.30;;
25125;SDS011;13106;50.808;5.670;2023-05-10T08:34:58;5.03;;;3.60;;
25125;SDS011;13106;50.808;5.670;2023-05-10T08:37:24;4.45;;;3.60;;
25125;SDS011;13106;50.808;5.670;2023-05-10T08:39:50;4.70;;;3.88;;
25125;SDS011;13106;50.808;5.670;2023-05-10T08:42:16;7.93;;;3.78;;
25125;SDS011;13106;50.808;5.670;2023-05-10T08:44:45;3.25;;;2.92;;
25125;SDS011;13106;50.808;5.670;2023-05-10T08:47:15;3.95;;;3.33;;
25125;SDS011;13106;50.808;5.670;2023-05-10T08:49:42;4.00;;;3.40;;
25125;SDS011;13106;50.808;5.670;2023-05-10T08:52:09;5.28;;;3.47;;
25125;SDS011;13106;50.808;5.670;2023-05-10T08:54:37;4.70;;;2.80;;
25125;SDS011;13106;50.808;5.670;2023-05-10T08:57:03;3.83;;;2.65;;
25125;SDS011;13106;50.808;5.670;2023-05-10T08:59:29;3.15;;;2.50;;
25125;SDS011;13106;50.808;5.670;2023-05-10T09:01:57;4.85;;;2.72;;
25125;SDS011;13106;50.808;5.670;2023-05-10T09:04:24;3.67;;;2.80;;
25125;SDS011;13106;50.808;5.670;2023-05-10T09:06:50;4.82;;;3.90;;
25125;SDS011;13106;50.808;5.670;2023-05-10T09:09:16;4.75;;;3.72;;
25125;SDS011;13106;50.808;5.670;2023-05-10T09:11:43;5.13;;;4.10;;
25125;SDS011;13106;50.808;5.670;2023-05-10T09:14:09;5.20;;;3.83;;
25125;SDS011;13106;50.808;5.670;2023-05-10T09:16:37;5.75;;;3.80;;
25125;SDS011;13106;50.808;5.670;2023-05-10T09:19:03;6.30;;;3.47;;
25125;SDS011;13106;50.808;5.670;2023-05-10T09:21:29;5.50;;;3.35;;
25125;SDS011;13106;50.808;5.670;2023-05-10T09:23:56;4.55;;;3.67;;
25125;SDS011;13106;50.808;5.670;2023-05-10T09:26:22;8.45;;;3.90;;
25125;SDS011;13106;50.808;5.670;2023-05-10T09:31:18;4.72;;;3.95;;
25125;SDS011;13106;50.808;5.670;2023-05-10T09:33:44;6.18;;;4.47;;
25125;SDS011;13106;50.808;5.670;2023-05-10T09:36:13;6.75;;;4.53;;
25125;SDS011;13106;50.808;5.670;2023-05-10T09:38:51;5.93;;;4.18;;
25125;SDS011;13106;50.808;5.670;2023-05-10T09:41:21;4.80;;;3.75;;
25125;SDS011;13106;50.808;5.670;2023-05-10T09:43:47;7.13;;;3.50;;
25125;SDS011;13106;50.808;5.670;2023-05-10T09:46:14;5.00;;;3.72;;
25125;SDS011;13106;50.808;5.670;2023-05-10T09:48:44;6.72;;;3.83;;
25125;SDS011;13106;50.808;5.670;2023-05-10T09:51:16;6.25;;;3.83;;
25125;SDS011;13106;50.808;5.670;2023-05-10T09:53:44;6.15;;;4.40;;
25125;SDS011;13106;50.808;5.670;2023-05-10T09:56:10;7.88;;;4.50;;
25125;SDS011;13106;50.808;5.670;2023-05-10T09:58:37;5.47;;;3.88;;
25125;SDS011;13106;50.808;5.670;2023-05-10T10:01:03;5.30;;;4.10;;
25125;SDS011;13106;50.808;5.670;2023-05-10T10:03:29;6.18;;;4.70;;
25125;SDS011;13106;50.808;5.670;2023-05-10T10:05:56;7.85;;;5.68;;
25125;SDS011;13106;50.808;5.670;2023-05-10T10:08:22;6.75;;;4.63;;
25125;SDS011;13106;50.808;5.670;2023-05-10T10:10:48;7.35;;;4.60;;
25125;SDS011;13106;50.808;5.670;2023-05-10T10:13:14;7.53;;;5.32;;
25125;SDS011;13106;50.808;5.670;2023-05-10T10:15:42;6.22;;;4.47;;
25125;SDS011;13106;50.808;5.670;2023-05-10T10:18:15;7.90;;;4.88;;
25125;SDS011;13106;50.808;5.670;2023-05-10T10:20:41;7.05;;;4.82;;
25125;SDS011;13106;50.808;5.670;2023-05-10T10:23:08;7.65;;;5.57;;
25125;SDS011;13106;50.808;5.670;2023-05-10T10:25:34;7.80;;;5.85;;
25125;SDS011;13106;50.808;5.670;2023-05-10T10:30:50;8.63;;;6.10;;
25125;SDS011;13106;50.808;5.670;2023-05-10T10:35:58;10.20;;;6.88;;
25125;SDS011;13106;50.808;5.670;2023-05-10T10:38:25;8.45;;;6.03;;
25125;SDS011;13106;50.808;5.670;2023-05-10T10:41:01;10.55;;;6.60;;
25125;SDS011;13106;50.808;5.670;2023-05-10T10:43:28;9.32;;;6.63;;
25125;SDS011;13106;50.808;5.670;2023-05-10T10:46:10;8.68;;;6.15;;
25125;SDS011;13106;50.808;5.670;2023-05-10T10:48:40;8.52;;;6.00;;
25125;SDS011;13106;50.808;5.670;2023-05-10T10:51:06;9.45;;;6.38;;
25125;SDS011;13106;50.808;5.670;2023-05-10T10:53:32;8.23;;;5.93;;
25125;SDS011;13106;50.808;5.670;2023-05-10T10:56:05;8.57;;;5.63;;
25125;SDS011;13106;50.808;5.670;2023-05-10T10:58:35;8.35;;;6.25;;
25125;SDS011;13106;50.808;5.670;2023-05-10T11:01:14;9.00;;;5.50;;
25125;SDS011;13106;50.808;5.670;2023-05-10T11:03:41;8.05;;;5.65;;
25125;SDS011;13106;50.808;5.670;2023-05-10T11:06:07;7.07;;;5.32;;
25125;SDS011;13106;50.808;5.670;2023-05-10T11:08:34;7.35;;;5.55;;
25125;SDS011;13106;50.808;5.670;2023-05-10T11:11:07;7.13;;;5.50;;
25125;SDS011;13106;50.808;5.670;2023-05-10T11:18:54;7.43;;;5.80;;
25125;SDS011;13106;50.808;5.670;2023-05-10T11:21:22;8.95;;;6.10;;
25125;SDS011;13106;50.808;5.670;2023-05-10T11:23:55;8.15;;;6.20;;
25125;SDS011;13106;50.808;5.670;2023-05-10T11:26:22;8.55;;;5.40;;
25125;SDS011;13106;50.808;5.670;2023-05-10T11:28:50;8.73;;;6.15;;
25125;SDS011;13106;50.808;5.670;2023-05-10T11:31:17;8.65;;;5.72;;
25125;SDS011;13106;50.808;5.670;2023-05-10T11:33:47;6.78;;;5.40;;
25125;SDS011;13106;50.808;5.670;2023-05-10T11:36:29;8.48;;;5.78;;
25125;SDS011;13106;50.808;5.670;2023-05-10T11:38:56;8.27;;;5.40;;
25125;SDS011;13106;50.808;5.670;2023-05-10T11:41:22;6.60;;;5.38;;
25125;SDS011;13106;50.808;5.670;2023-05-10T11:43:49;7.15;;;5.15;;
25125;SDS011;13106;50.808;5.670;2023-05-10T11:46:17;7.03;;;5.68;;
25125;SDS011;13106;50.808;5.670;2023-05-10T11:48:45;6.05;;;4.90;;
25125;SDS011;13106;50.808;5.670;2023-05-10T11:51:11;6.10;;;4.82;;
25125;SDS011;13106;50.808;5.670;2023-05-10T11:53:37;5.40;;;4.30;;
25125;SDS011;13106;50.808;5.670;2023-05-10T11:56:04;5.75;;;4.30;;
25125;SDS011;13106;50.808;5.670;2023-05-10T11:58:31;8.02;;;4.57;;
25125;SDS011;13106;50.808;5.670;2023-05-10T12:00:58;4.55;;;3.70;;
25125;SDS011;13106;50.808;5.670;2023-05-10T12:03:24;5.57;;;4.40;;
25125;SDS011;13106;50.808;5.670;2023-05-10T12:05:51;5.78;;;3.70;;
25125;SDS011;13106;50.808;5.670;2023-05-10T12:08:20;5.20;;;3.80;;
25125;SDS011;13106;50.808;5.670;2023-05-10T12:10:46;6.35;;;4.68;;
25125;SDS011;13106;50.808;5.670;2023-05-10T12:13:13;5.35;;;4.28;;
25125;SDS011;13106;50.808;5.670;2023-05-10T12:15:39;4.57;;;3.55;;
25125;SDS011;13106;50.808;5.670;2023-05-10T12:18:05;4.75;;;3.60;;
25125;SDS011;13106;50.808;5.670;2023-05-10T12:20:31;5.25;;;3.90;;
25125;SDS011;13106;50.808;5.670;2023-05-10T12:22:58;5.40;;;3.97;;
25125;SDS011;13106;50.808;5.670;2023-05-10T12:25:30;5.20;;;3.92;;
25125;SDS011;13106;50.808;5.670;2023-05-10T12:27:57;5.65;;;4.95;;
25125;SDS011;13106;50.808;5.670;2023-05-10T12:30:26;6.35;;;4.47;;
25125;SDS011;13106;50.808;5.670;2023-05-10T12:32:53;3.58;;;3.28;;
25125;SDS011;13106;50.808;5.670;2023-05-10T12:35:19;4.50;;;4.10;;
25125;SDS011;13106;50.808;5.670;2023-05-10T12:37:47;4.97;;;4.43;;
25125;SDS011;13106;50.808;5.670;2023-05-10T12:40:13;5.93;;;4.65;;
25125;SDS011;13106;50.808;5.670;2023-05-10T12:42:39;4.63;;;3.45;;
25125;SDS011;13106;50.808;5.670;2023-05-10T12:45:06;6.57;;;4.00;;
25125;SDS011;13106;50.808;5.670;2023-05-10T12:47:32;4.55;;;3.30;;
25125;SDS011;13106;50.808;5.670;2023-05-10T12:49:59;5.30;;;3.45;;
25125;SDS011;13106;50.808;5.670;2023-05-10T12:52:26;4.60;;;4.03;;
25125;SDS011;13106;50.808;5.670;2023-05-10T12:54:52;6.82;;;4.50;;
25125;SDS011;13106;50.808;5.670;2023-05-10T12:57:19;4.82;;;3.85;;
25125;SDS011;13106;50.808;5.670;2023-05-10T12:59:45;4.00;;;3.60;;
25125;SDS011;13106;50.808;5.670;2023-05-10T13:02:11;5.82;;;3.33;;
25125;SDS011;13106;50.808;5.670;2023-05-10T13:04:39;5.07;;;3.63;;
25125;SDS011;13106;50.808;5.670;2023-05-10T13:07:06;5.18;;;3.85;;
25125;SDS011;13106;50.808;5.670;2023-05-10T13:09:32;4.13;;;3.28;;
25125;SDS011;13106;50.808;5.670;2023-05-10T13:11:58;3.72;;;3.33;;
25125;SDS011;13106;50.808;5.670;2023-05-10T13:14:24;5.50;;;3.58;;
25125;SDS011;13106;50.808;5.670;2023-05-10T13:16:50;4.93;;;3.00;;
25125;SDS011;13106;50.808;5.670;2023-05-10T13:19:17;3.05;;;2.80;;
25125;SDS011;13106;50.808;5.670;2023-05-10T13:21:43;4.72;;;3.53;;
25125;SDS011;13106;50.808;5.670;2023-05-10T13:24:10;3.70;;;2.85;;
25125;SDS011;13106;50.808;5.670;2023-05-10T13:26:38;4.57;;;2.20;;
25125;SDS011;13106;50.808;5.670;2023-05-10T13:29:05;2.58;;;2.38;;
25125;SDS011;13106;50.808;5.670;2023-05-10T13:31:31;2.42;;;2.22;;
25125;SDS011;13106;50.808;5.670;2023-05-10T13:33:57;2.60;;;2.40;;
25125;SDS011;13106;50.808;5.670;2023-05-10T13:36:23;2.33;;;2.10;;
25125;SDS011;13106;50.808;5.670;2023-05-10T13:38:49;3.55;;;2.30;;
25125;SDS011;13106;50.808;5.670;2023-05-10T13:41:15;4.60;;;2.50;;
25125;SDS011;13106;50.808;5.670;2023-05-10T13:43:41;4.53;;;2.45;;
25125;SDS011;13106;50.808;5.670;2023-05-10T13:46:07;3.13;;;2.80;;
25125;SDS011;13106;50.808;5.670;2023-05-10T13:48:33;4.05;;;2.50;;
25125;SDS011;13106;50.808;5.670;2023-05-10T13:50:59;3.38;;;2.50;;
25125;SDS011;13106;50.808;5.670;2023-05-10T13:53:25;3.13;;;2.60;;
25125;SDS011;13106;50.808;5.670;2023-05-10T13:55:51;3.03;;;2.20;;
25125;SDS011;13106;50.808;5.670;2023-05-10T13:58:17;3.28;;;2.30;;
25125;SDS011;13106;50.808;5.670;2023-05-10T14:00:44;3.33;;;2.33;;
25125;SDS011;13106;50.808;5.670;2023-05-10T14:03:10;2.28;;;1.70;;
25125;SDS011;13106;50.808;5.670;2023-05-10T14:05:36;2.38;;;2.05;;
25125;SDS011;13106;50.808;5.670;2023-05-10T14:08:02;1.05;;;1.02;;
25125;SDS011;13106;50.808;5.670;2023-05-10T14:10:29;2.67;;;1.08;;
25125;SDS011;13106;50.808;5.670;2023-05-10T14:12:55;1.40;;;1.00;;
25125;SDS011;13106;50.808;5.670;2023-05-10T14:15:24;1.13;;;0.82;;
25125;SDS011;13106;50.808;5.670;2023-05-10T14:17:50;2.63;;;1.10;;
25125;SDS011;13106;50.808;5.670;2023-05-10T14:20:17;2.15;;;1.00;;
25125;SDS011;13106;50.808;5.670;2023-05-10T14:22:43;1.35;;;1.10;;
25125;SDS011;13106;50.808;5.670;2023-05-10T14:25:09;0.50;;;0.50;;
25125;SDS011;13106;50.808;5.670;2023-05-10T14:27:35;1.27;;;0.85;;
25125;SDS011;13106;50.808;5.670;2023-05-10T14:30:01;0.57;;;0.57;;
25125;SDS011;13106;50.808;5.670;2023-05-10T14:32:27;1.88;;;0.75;;
25125;SDS011;13106;50.808;5.670;2023-05-10T14:34:53;0.65;;;0.65;;
25125;SDS011;13106;50.808;5.670;2023-05-10T14:37:19;0.80;;;0.80;;
25125;SDS011;13106;50.808;5.670;2023-05-10T14:39:46;0.73;;;0.73;;
25125;SDS011;13106;50.808;5.670;2023-05-10T14:42:12;1.23;;;0.90;;
25125;SDS011;13106;50.808;5.670;2023-05-10T14:44:38;1.55;;;1.15;;
25125;SDS011;13106;50.808;5.670;2023-05-10T14:47:04;1.70;;;1.00;;
25125;SDS011;13106;50.808;5.670;2023-05-10T14:49:30;0.82;;;0.82;;
25125;SDS011;13106;50.808;5.670;2023-05-10T14:51:56;1.40;;;0.90;;
25125;SDS011;13106;50.808;5.670;2023-05-10T14:54:22;1.48;;;1.38;;
25125;SDS011;13106;50.808;5.670;2023-05-10T14:56:48;1.77;;;1.67;;
25125;SDS011;13106;50.808;5.670;2023-05-10T14:59:15;2.10;;;1.40;;
25125;SDS011;13106;50.808;5.670;2023-05-10T15:01:41;1.42;;;1.40;;
25125;SDS011;13106;50.808;5.670;2023-05-10T15:04:07;1.80;;;1.70;;
25125;SDS011;13106;50.808;5.670;2023-05-10T15:06:33;2.22;;;1.80;;
25125;SDS011;13106;50.808;5.670;2023-05-10T15:09:00;1.70;;;1.60;;
25125;SDS011;13106;50.808;5.670;2023-05-10T15:11:27;2.20;;;2.10;;
25125;SDS011;13106;50.808;5.670;2023-05-10T15:13:53;2.42;;;2.28;;